createdAt,value
2022-08-20T00:01:05.484Z,6.72
2022-08-20T00:03:35.800Z,7.38
2022-08-20T00:06:07.471Z,7.05
2022-08-20T00:08:34.462Z,6.50
2022-08-20T00:11:02.339Z,6.70
2022-08-20T00:13:50.907Z,7.30
2022-08-20T00:16:20.181Z,6.28
2022-08-20T00:18:47.857Z,6.55
2022-08-20T00:21:19.056Z,6.60
2022-08-20T00:23:48.896Z,6.88
2022-08-20T00:26:16.181Z,6.18
2022-08-20T00:28:43.915Z,7.10
2022-08-20T00:31:14.544Z,6.95
2022-08-20T00:33:41.865Z,7.75
2022-08-20T00:36:11.093Z,7.30
2022-08-20T00:38:42.752Z,6.68
2022-08-20T00:41:13.915Z,6.72
2022-08-20T00:43:48.595Z,7.05
2022-08-20T00:46:22.703Z,6.95
2022-08-20T00:48:58.637Z,6.82
2022-08-20T00:51:29.916Z,6.97
2022-08-20T00:54:02.851Z,8.02
2022-08-20T00:56:34.006Z,7.20
2022-08-20T00:59:02.053Z,7.18
2022-08-20T01:01:29.813Z,6.43
2022-08-20T01:03:57.641Z,7.15
2022-08-20T01:06:25.244Z,7.65
2022-08-20T01:08:52.806Z,8.20
2022-08-20T01:11:30.892Z,7.55
2022-08-20T01:14:28.786Z,7.35
2022-08-20T01:17:00.595Z,7.70
2022-08-20T01:20:05.801Z,6.47
2022-08-20T01:23:00.926Z,7.28
2022-08-20T01:25:51.032Z,6.75
2022-08-20T01:28:29.742Z,7.22
2022-08-20T01:30:56.995Z,7.80
2022-08-20T01:33:24.598Z,7.20
2022-08-20T01:35:53.724Z,7.20
2022-08-20T01:38:20.887Z,7.00
2022-08-20T01:41:21.888Z,7.50
2022-08-20T01:43:58.845Z,7.35
2022-08-20T01:46:33.331Z,7.00
2022-08-20T01:49:23.062Z,6.97
2022-08-20T01:51:52.581Z,6.60
2022-08-20T01:54:20.536Z,7.10
2022-08-20T01:56:55.508Z,7.70
2022-08-20T01:59:23.057Z,7.40
2022-08-20T02:01:50.704Z,7.28
2022-08-20T02:04:18.402Z,7.18
2022-08-20T02:06:57.260Z,7.45
2022-08-20T02:09:30.493Z,7.40
2022-08-20T02:11:58.598Z,7.88
2022-08-20T02:14:27.278Z,7.15
2022-08-20T02:16:55.179Z,7.55
2022-08-20T02:20:09.151Z,7.72
2022-08-20T02:22:55.697Z,7.55
2022-08-20T02:25:26.761Z,7.07
2022-08-20T02:27:56.014Z,7.72
2022-08-20T02:30:28.774Z,7.28
2022-08-20T02:32:57.910Z,7.45
2022-08-20T02:35:26.185Z,7.97
2022-08-20T02:37:54.417Z,8.02
2022-08-20T02:40:27.337Z,8.25
2022-08-20T02:42:59.968Z,8.23
2022-08-20T02:45:28.230Z,8.65
2022-08-20T02:47:57.191Z,8.27
2022-08-20T02:50:26.314Z,8.38
2022-08-20T02:52:53.378Z,8.30
2022-08-20T02:55:25.989Z,8.23
2022-08-20T02:57:58.564Z,8.55
2022-08-20T03:00:27.486Z,9.43
2022-08-20T03:02:54.462Z,8.60
2022-08-20T03:05:21.460Z,8.55
2022-08-20T03:07:53.554Z,8.85
2022-08-20T03:10:26.235Z,9.27
2022-08-20T03:12:53.116Z,9.05
2022-08-20T03:15:20.547Z,9.20
2022-08-20T03:17:47.831Z,9.75
2022-08-20T03:20:15.979Z,10.30
2022-08-20T03:22:43.051Z,10.32
2022-08-20T03:25:10.858Z,10.10
2022-08-20T03:27:38.407Z,10.02
2022-08-20T03:30:09.333Z,9.80
2022-08-20T03:32:36.680Z,10.18
2022-08-20T03:35:07.383Z,10.00
2022-08-20T03:37:36.097Z,9.95
2022-08-20T03:40:09.692Z,9.30
2022-08-20T03:42:37.312Z,10.07
2022-08-20T03:45:04.836Z,10.15
2022-08-20T03:47:32.139Z,10.98
2022-08-20T03:50:03.978Z,10.52
2022-08-20T03:52:31.627Z,9.80
2022-08-20T03:54:59.321Z,9.45
2022-08-20T03:57:27.563Z,9.60
2022-08-20T03:59:54.934Z,10.38
2022-08-20T04:02:25.711Z,9.35
2022-08-20T04:04:52.624Z,10.13
2022-08-20T04:07:25.939Z,9.80
2022-08-20T04:09:53.970Z,10.00
2022-08-20T04:12:21.416Z,9.52
2022-08-20T04:14:48.741Z,9.57
2022-08-20T04:17:18.409Z,9.32
2022-08-20T04:19:47.614Z,12.25
2022-08-20T04:22:14.547Z,11.05
2022-08-20T04:24:42.919Z,10.20
2022-08-20T04:27:11.000Z,9.65
2022-08-20T04:29:43.435Z,9.52
2022-08-20T04:32:12.291Z,10.05
2022-08-20T04:34:40.661Z,12.00
2022-08-20T04:37:16.912Z,9.05
2022-08-20T04:39:44.362Z,9.90
2022-08-20T04:42:11.298Z,9.95
2022-08-20T04:44:39.858Z,10.07
2022-08-20T04:47:07.839Z,9.85
2022-08-20T04:49:35.149Z,9.98
2022-08-20T04:52:03.271Z,10.05
2022-08-20T04:54:31.455Z,10.10
2022-08-20T04:57:01.359Z,9.45
2022-08-20T04:59:28.972Z,9.90
2022-08-20T05:01:55.858Z,9.38
2022-08-20T05:04:22.760Z,9.98
2022-08-20T05:06:49.699Z,10.20
2022-08-20T05:09:16.953Z,10.05
2022-08-20T05:11:43.911Z,10.88
2022-08-20T05:14:11.180Z,9.63
2022-08-20T05:16:39.498Z,10.30
2022-08-20T05:19:09.023Z,9.75
2022-08-20T05:21:36.441Z,9.73
2022-08-20T05:24:03.647Z,9.90
2022-08-20T05:26:30.563Z,9.60
2022-08-20T05:28:58.559Z,10.00
2022-08-20T05:31:32.412Z,9.88
2022-08-20T05:34:12.125Z,10.38
2022-08-20T05:36:47.041Z,11.45
2022-08-20T05:39:15.715Z,10.25
2022-08-20T05:41:43.351Z,10.05
2022-08-20T05:44:13.610Z,9.80
2022-08-20T05:46:42.846Z,11.05
2022-08-20T05:49:16.303Z,10.63
2022-08-20T05:51:44.151Z,10.30
2022-08-20T05:54:11.708Z,10.52
2022-08-20T05:56:39.576Z,10.88
2022-08-20T05:59:10.273Z,10.57
2022-08-20T06:01:39.182Z,10.27
2022-08-20T06:04:32.603Z,9.80
2022-08-20T06:07:06.483Z,9.43
2022-08-20T06:09:33.993Z,9.07
2022-08-20T06:12:03.067Z,8.93
2022-08-20T06:14:30.562Z,8.88
2022-08-20T06:17:03.980Z,9.45
2022-08-20T06:19:32.386Z,9.27
2022-08-20T06:22:01.204Z,9.30
2022-08-20T06:24:28.730Z,9.90
2022-08-20T06:27:04.733Z,8.85
2022-08-20T06:29:35.059Z,9.82
2022-08-20T06:32:02.089Z,9.68
2022-08-20T06:34:30.798Z,9.70
2022-08-20T06:37:00.067Z,9.45
2022-08-20T06:39:30.061Z,9.05
2022-08-20T06:41:58.744Z,10.07
2022-08-20T06:44:26.265Z,9.00
2022-08-20T06:46:53.710Z,9.15
2022-08-20T06:49:20.609Z,9.52
2022-08-20T06:51:51.863Z,9.00
2022-08-20T06:54:19.024Z,8.75
2022-08-20T06:56:46.303Z,9.48
2022-08-20T06:59:13.466Z,9.85
2022-08-20T07:01:40.859Z,9.13
2022-08-20T07:04:08.513Z,8.63
2022-08-20T07:06:35.436Z,8.80
2022-08-20T07:09:02.493Z,8.55
2022-08-20T07:11:29.775Z,7.90
2022-08-20T07:13:58.540Z,8.07
2022-08-20T07:16:25.967Z,8.07
2022-08-20T07:18:53.335Z,7.82
2022-08-20T07:21:20.711Z,7.85
2022-08-20T07:23:49.466Z,8.23
2022-08-20T07:26:17.086Z,7.28
2022-08-20T07:28:44.052Z,7.38
2022-08-20T07:31:31.248Z,6.63
2022-08-20T07:33:58.827Z,7.80
2022-08-20T07:36:27.284Z,7.18
2022-08-20T07:38:54.752Z,6.80
2022-08-20T07:41:24.179Z,7.75
2022-08-20T07:43:51.147Z,6.45
2022-08-20T07:46:21.631Z,7.28
2022-08-20T07:48:50.642Z,7.25
2022-08-20T07:51:20.627Z,6.57
2022-08-20T07:53:48.727Z,5.90
2022-08-20T07:56:19.585Z,6.50
2022-08-20T07:58:53.559Z,5.88
2022-08-20T08:01:25.908Z,5.85
2022-08-20T08:03:53.073Z,6.07
2022-08-20T08:06:29.278Z,6.30
2022-08-20T08:09:13.479Z,6.72
2022-08-20T08:11:47.806Z,6.38
2022-08-20T08:14:17.153Z,6.40
2022-08-20T08:16:45.356Z,5.68
2022-08-20T08:19:15.222Z,7.00
2022-08-20T08:21:43.626Z,6.50
2022-08-20T08:24:12.688Z,6.28
2022-08-20T08:26:41.347Z,6.25
2022-08-20T08:29:08.280Z,6.47
2022-08-20T08:31:35.472Z,6.50
2022-08-20T08:34:02.379Z,6.60
2022-08-20T08:36:29.366Z,7.05
2022-08-20T08:38:56.711Z,5.57
2022-08-20T08:41:34.452Z,5.32
2022-08-20T08:44:07.024Z,6.97
2022-08-20T08:46:40.397Z,5.50
2022-08-20T08:49:09.793Z,6.35
2022-08-20T08:51:47.993Z,5.47
2022-08-20T08:54:18.672Z,5.70
2022-08-20T08:56:49.761Z,6.35
2022-08-20T08:59:18.640Z,6.47
2022-08-20T09:01:53.708Z,6.00
2022-08-20T09:04:33.020Z,6.40
2022-08-20T09:07:02.954Z,6.53
2022-08-20T09:09:33.956Z,6.10
2022-08-20T09:12:12.489Z,6.60
2022-08-20T09:14:40.034Z,6.70
2022-08-20T09:17:07.770Z,6.82
2022-08-20T09:19:34.670Z,6.15
2022-08-20T09:22:09.300Z,5.90
2022-08-20T09:24:36.373Z,5.68
2022-08-20T09:27:03.359Z,5.85
2022-08-20T09:29:30.359Z,5.90
2022-08-20T09:32:09.318Z,6.10
2022-08-20T09:34:56.577Z,6.45
2022-08-20T09:37:27.004Z,6.10
2022-08-20T09:39:54.306Z,6.03
2022-08-20T09:42:24.078Z,6.15
2022-08-20T09:44:51.623Z,6.03
2022-08-20T09:47:18.640Z,6.93
2022-08-20T09:49:45.928Z,5.50
2022-08-20T09:52:40.673Z,5.20
2022-08-20T09:55:36.420Z,5.28
2022-08-20T09:58:07.629Z,5.22
2022-08-20T10:00:34.546Z,4.90
2022-08-20T10:03:03.394Z,5.28
2022-08-20T10:05:31.651Z,5.93
2022-08-20T10:08:00.054Z,5.97
2022-08-20T10:10:27.208Z,6.20
2022-08-20T10:12:54.989Z,6.50
2022-08-20T10:15:22.155Z,5.25
2022-08-20T10:17:49.260Z,4.88
2022-08-20T10:20:18.341Z,4.75
2022-08-20T10:22:45.510Z,5.22
2022-08-20T10:25:12.728Z,5.35
2022-08-20T10:27:40.573Z,5.05
2022-08-20T10:30:08.127Z,5.20
2022-08-20T10:32:35.176Z,5.00
2022-08-20T10:35:02.106Z,4.45
2022-08-20T10:37:29.246Z,4.75
2022-08-20T10:39:56.725Z,4.68
2022-08-20T10:42:23.930Z,4.47
2022-08-20T10:44:50.908Z,4.15
2022-08-20T10:47:22.819Z,4.80
2022-08-20T10:49:52.962Z,4.25
2022-08-20T10:52:20.662Z,4.88
2022-08-20T10:54:48.090Z,4.50
2022-08-20T10:57:18.543Z,4.97
2022-08-20T10:59:48.015Z,5.43
2022-08-20T11:02:15.559Z,6.35
2022-08-20T11:04:42.902Z,4.00
2022-08-20T11:07:14.328Z,4.45
2022-08-20T11:09:41.805Z,5.18
2022-08-20T11:12:09.244Z,3.83
2022-08-20T11:14:36.220Z,4.30
2022-08-20T11:17:03.981Z,4.45
2022-08-20T11:19:31.037Z,4.22
2022-08-20T11:21:57.919Z,5.32
2022-08-20T11:24:25.155Z,3.53
2022-08-20T11:26:53.462Z,4.38
2022-08-20T11:29:22.634Z,3.90
2022-08-20T11:31:49.580Z,4.28
2022-08-20T11:34:16.654Z,4.25
2022-08-20T11:36:45.320Z,3.33
2022-08-20T11:39:12.759Z,3.70
2022-08-20T11:41:40.410Z,5.15
2022-08-20T11:44:20.747Z,3.97
2022-08-20T11:46:48.476Z,4.60
2022-08-20T11:49:15.445Z,5.57
2022-08-20T11:51:49.652Z,4.25
2022-08-20T11:54:17.602Z,4.18
2022-08-20T11:56:46.113Z,3.97
2022-08-20T11:59:13.681Z,4.47
2022-08-20T12:01:40.684Z,3.90
2022-08-20T12:04:13.811Z,4.38
2022-08-20T12:06:40.784Z,4.18
2022-08-20T12:09:08.010Z,4.80
2022-08-20T12:11:34.893Z,4.35
2022-08-20T12:14:01.904Z,4.43
2022-08-20T12:16:28.802Z,4.10
2022-08-20T12:18:55.973Z,4.60
2022-08-20T12:21:22.946Z,3.65
2022-08-20T12:23:50.067Z,5.15
2022-08-20T12:26:17.227Z,4.13
2022-08-20T12:28:44.694Z,4.22
2022-08-20T12:31:11.577Z,4.93
2022-08-20T12:33:38.763Z,4.57
2022-08-20T12:36:06.207Z,4.20
2022-08-20T12:38:33.239Z,4.43
2022-08-20T12:41:00.819Z,4.13
2022-08-20T12:43:28.061Z,3.78
2022-08-20T12:45:54.986Z,3.90
2022-08-20T12:48:21.909Z,3.75
2022-08-20T12:50:50.327Z,4.03
2022-08-20T12:53:17.453Z,6.72
2022-08-20T12:55:45.065Z,4.43
2022-08-20T12:58:12.469Z,4.18
2022-08-20T13:00:44.368Z,4.22
2022-08-20T13:03:17.396Z,4.85
2022-08-20T13:05:44.313Z,4.38
2022-08-20T13:08:12.885Z,4.45
2022-08-20T13:10:44.535Z,5.05
2022-08-20T13:13:17.683Z,4.68
2022-08-20T13:15:48.730Z,4.22
2022-08-20T13:18:15.890Z,3.67
2022-08-20T13:20:45.889Z,3.78
2022-08-20T13:23:13.111Z,4.25
2022-08-20T13:25:40.106Z,3.47
2022-08-20T13:28:07.165Z,3.97
2022-08-20T13:30:36.867Z,4.00
2022-08-20T13:33:04.458Z,3.40
2022-08-20T13:35:31.546Z,4.28
2022-08-20T13:37:58.500Z,3.72
2022-08-20T13:40:26.013Z,3.90
2022-08-20T13:42:52.939Z,4.22
2022-08-20T13:45:20.447Z,3.75
2022-08-20T13:47:51.612Z,4.00
2022-08-20T13:50:21.535Z,3.85
2022-08-20T13:52:48.732Z,3.83
2022-08-20T13:55:18.940Z,3.85
2022-08-20T13:57:47.483Z,3.33
2022-08-20T14:00:21.156Z,5.45
2022-08-20T14:02:58.693Z,3.88
2022-08-20T14:05:25.731Z,4.00
2022-08-20T14:07:52.675Z,4.43
2022-08-20T14:10:24.436Z,4.50
2022-08-20T14:12:51.535Z,3.50
2022-08-20T14:15:19.257Z,3.28
2022-08-20T14:17:55.269Z,4.07
2022-08-20T14:20:25.578Z,3.67
2022-08-20T14:22:57.617Z,3.67
2022-08-20T14:25:26.105Z,3.80
2022-08-20T14:27:54.506Z,3.65
2022-08-20T14:30:25.112Z,3.55
2022-08-20T14:32:52.359Z,3.63
2022-08-20T14:35:20.042Z,3.72
2022-08-20T14:37:52.866Z,3.72
2022-08-20T14:40:23.632Z,3.38
2022-08-20T14:42:51.462Z,3.30
2022-08-20T14:45:20.783Z,3.38
2022-08-20T14:47:54.180Z,3.47
2022-08-20T14:50:26.378Z,4.05
2022-08-20T14:52:54.144Z,3.40
2022-08-20T14:55:24.356Z,3.45
2022-08-20T14:57:51.496Z,3.63
2022-08-20T15:00:22.801Z,3.20
2022-08-20T15:02:49.802Z,3.50
2022-08-20T15:05:17.637Z,3.10
2022-08-20T15:07:48.600Z,4.15
2022-08-20T15:10:19.914Z,3.45
2022-08-20T15:12:47.112Z,5.07
2022-08-20T15:15:16.253Z,3.10
2022-08-20T15:17:49.458Z,3.42
2022-08-20T15:20:20.138Z,3.72
2022-08-20T15:22:48.643Z,3.58
2022-08-20T15:25:19.008Z,3.90
2022-08-20T15:27:47.138Z,5.95
2022-08-20T15:30:18.469Z,4.10
2022-08-20T15:32:45.812Z,3.67
2022-08-20T15:35:13.337Z,4.00
2022-08-20T15:37:46.434Z,3.15
2022-08-20T15:40:17.151Z,3.33
2022-08-20T15:42:46.683Z,3.10
2022-08-20T15:45:21.861Z,3.85
2022-08-20T15:48:17.357Z,3.45
2022-08-20T15:51:15.299Z,3.47
2022-08-20T15:53:47.941Z,3.53
2022-08-20T15:59:16.400Z,3.50
2022-08-20T16:01:54.115Z,3.30
2022-08-20T16:04:42.507Z,5.47
2022-08-20T16:07:25.340Z,4.28
2022-08-20T16:12:40.782Z,3.10
2022-08-20T16:15:18.853Z,3.40
2022-08-20T16:18:09.016Z,3.95
2022-08-20T16:20:52.806Z,3.75
2022-08-20T16:23:25.363Z,6.80
2022-08-20T16:26:30.012Z,3.83
2022-08-20T16:29:13.609Z,3.08
2022-08-20T16:32:21.600Z,2.70
2022-08-20T16:34:53.677Z,3.00
2022-08-20T16:37:20.497Z,2.88
2022-08-20T16:40:07.355Z,2.63
2022-08-20T16:42:38.855Z,3.50
2022-08-20T16:45:10.146Z,2.60
2022-08-20T16:47:40.860Z,3.10
2022-08-20T16:50:19.989Z,3.30
2022-08-20T16:52:47.927Z,3.08
2022-08-20T16:55:16.179Z,2.80
2022-08-20T16:57:44.651Z,3.30
2022-08-20T17:00:23.780Z,3.47
2022-08-20T17:02:52.144Z,4.28
2022-08-20T17:05:19.742Z,4.75
2022-08-20T17:07:53.619Z,2.60
2022-08-20T17:10:26.091Z,3.10
2022-08-20T17:13:17.123Z,3.25
2022-08-20T17:15:53.213Z,3.67
2022-08-20T17:18:38.641Z,2.47
2022-08-20T17:21:15.704Z,3.72
2022-08-20T17:23:56.118Z,3.33
2022-08-20T17:26:36.308Z,3.33
2022-08-20T17:29:19.437Z,3.40
2022-08-20T17:31:50.399Z,3.58
2022-08-20T17:34:26.994Z,3.15
2022-08-20T17:36:58.190Z,3.50
2022-08-20T17:39:28.185Z,4.35
2022-08-20T17:42:06.403Z,3.25
2022-08-20T17:44:37.828Z,4.30
2022-08-20T17:47:12.456Z,3.53
2022-08-20T17:49:57.451Z,3.70
2022-08-20T17:52:43.884Z,3.72
2022-08-20T17:55:12.340Z,3.25
2022-08-20T17:57:43.146Z,3.65
2022-08-20T18:00:24.257Z,4.43
2022-08-20T18:02:55.048Z,3.42
2022-08-20T18:05:22.383Z,3.08
2022-08-20T18:08:09.286Z,3.10
2022-08-20T18:11:03.988Z,4.07
2022-08-20T18:13:48.111Z,3.47
2022-08-20T18:16:25.470Z,3.42
2022-08-20T18:19:19.788Z,3.45
2022-08-20T18:21:49.637Z,4.05
2022-08-20T18:24:40.688Z,3.90
2022-08-20T18:27:16.385Z,4.10
2022-08-20T18:29:46.705Z,4.72
2022-08-20T18:32:43.755Z,5.00
2022-08-20T18:35:18.226Z,3.70
2022-08-20T18:37:45.480Z,4.10
2022-08-20T18:40:33.248Z,4.65
2022-08-20T18:43:12.784Z,4.38
2022-08-20T18:45:39.942Z,3.90
2022-08-20T18:48:07.763Z,4.15
2022-08-20T18:50:40.845Z,3.60
2022-08-20T18:53:22.133Z,4.05
2022-08-20T18:56:13.661Z,4.43
2022-08-20T18:58:55.165Z,5.13
2022-08-20T19:01:22.158Z,4.32
2022-08-20T19:03:53.325Z,5.63
2022-08-20T19:06:34.075Z,5.15
2022-08-20T19:09:04.872Z,4.80
2022-08-20T19:11:53.353Z,5.25
2022-08-20T19:14:23.254Z,4.28
2022-08-20T19:16:58.019Z,4.85
2022-08-20T19:19:28.489Z,4.65
2022-08-20T19:22:00.763Z,5.43
2022-08-20T19:24:31.184Z,3.80
2022-08-20T19:27:04.915Z,5.03
2022-08-20T19:29:47.464Z,4.70
2022-08-20T19:32:24.239Z,5.55
2022-08-20T19:34:54.030Z,5.10
2022-08-20T19:37:35.070Z,5.00
2022-08-20T19:40:18.597Z,5.40
2022-08-20T19:42:46.373Z,5.00
2022-08-20T19:45:30.718Z,4.22
2022-08-20T19:48:16.082Z,4.45
2022-08-20T19:51:06.488Z,4.35
2022-08-20T19:53:36.582Z,5.07
2022-08-20T19:56:16.517Z,5.10
2022-08-20T19:58:43.857Z,5.90
2022-08-20T20:01:17.372Z,5.57
2022-08-20T20:04:00.161Z,5.85
2022-08-20T20:06:28.839Z,5.57
2022-08-20T20:09:00.020Z,5.70
2022-08-20T20:11:49.589Z,6.00
2022-08-20T20:14:18.553Z,6.20
2022-08-20T20:16:48.816Z,6.00
2022-08-20T20:19:32.941Z,5.57
2022-08-20T20:22:18.690Z,6.13
2022-08-20T20:24:50.837Z,5.95
2022-08-20T20:27:26.816Z,5.65
2022-08-20T20:30:04.114Z,6.10
2022-08-20T20:32:34.302Z,4.90
2022-08-20T20:35:04.487Z,5.47
2022-08-20T20:37:49.696Z,5.53
2022-08-20T20:40:33.967Z,4.45
2022-08-20T20:43:10.652Z,5.25
2022-08-20T20:45:58.896Z,5.32
2022-08-20T20:48:28.496Z,4.80
2022-08-20T20:51:11.831Z,5.85
2022-08-20T20:53:53.389Z,5.07
2022-08-20T20:56:32.029Z,5.13
2022-08-20T20:59:04.004Z,5.28
2022-08-20T21:01:49.578Z,5.35
2022-08-20T21:04:21.831Z,4.82
2022-08-20T21:06:49.822Z,4.55
2022-08-20T21:09:17.031Z,5.75
2022-08-20T21:11:44.233Z,5.85
2022-08-20T21:14:11.366Z,5.43
2022-08-20T21:16:38.504Z,5.38
2022-08-20T21:19:06.823Z,5.78
2022-08-20T21:21:34.157Z,6.03
2022-08-20T21:24:01.033Z,5.57
2022-08-20T21:26:28.473Z,4.70
2022-08-20T21:28:55.760Z,4.80
2022-08-20T21:31:26.354Z,4.75
2022-08-20T21:33:53.331Z,5.35
2022-08-20T21:36:20.205Z,5.30
2022-08-20T21:38:47.140Z,4.90
2022-08-20T21:41:14.961Z,4.68
2022-08-20T21:43:42.536Z,5.45
2022-08-20T21:46:12.916Z,5.15
2022-08-20T21:48:43.211Z,5.60
2022-08-20T21:51:12.491Z,5.05
2022-08-20T21:53:39.419Z,5.13
2022-08-20T21:56:06.936Z,5.10
2022-08-20T21:58:33.988Z,4.97
2022-08-20T22:01:04.378Z,4.85
2022-08-20T22:03:34.721Z,5.45
2022-08-20T22:06:07.650Z,4.68
2022-08-20T22:08:34.997Z,4.78
2022-08-20T22:11:02.422Z,4.78
2022-08-20T22:13:32.859Z,4.60
2022-08-20T22:16:04.701Z,4.55
2022-08-20T22:18:32.096Z,4.78
2022-08-20T22:20:59.476Z,4.75
2022-08-20T22:23:27.093Z,4.82
2022-08-20T22:25:54.160Z,4.72
2022-08-20T22:28:21.394Z,4.97
2022-08-20T22:30:48.477Z,4.78
2022-08-20T22:33:21.174Z,4.53
2022-08-20T22:35:59.454Z,5.07
2022-08-20T22:38:26.873Z,4.80
2022-08-20T22:40:54.197Z,5.47
2022-08-20T22:43:23.320Z,4.90
2022-08-20T22:45:57.833Z,4.70
2022-08-20T22:48:25.535Z,4.72
2022-08-20T22:50:53.219Z,5.18
2022-08-20T22:53:21.966Z,5.40
2022-08-20T22:55:49.341Z,4.63
2022-08-20T22:58:17.339Z,4.88
2022-08-20T23:00:46.444Z,4.38
2022-08-20T23:03:15.514Z,4.75
2022-08-20T23:05:46.318Z,4.43
2022-08-20T23:08:13.430Z,4.90
2022-08-20T23:10:41.011Z,4.93
2022-08-20T23:13:08.103Z,4.93
2022-08-20T23:15:43.402Z,5.72
2022-08-20T23:18:15.979Z,5.35
2022-08-20T23:20:45.510Z,4.65
2022-08-20T23:23:12.444Z,5.20
2022-08-20T23:25:41.180Z,5.43
2022-08-20T23:28:08.133Z,5.22
2022-08-20T23:30:35.468Z,5.45
2022-08-20T23:33:03.567Z,5.75
2022-08-20T23:35:32.985Z,5.25
2022-08-20T23:38:00.242Z,7.85
2022-08-20T23:40:28.556Z,5.55
2022-08-20T23:42:56.736Z,5.28
2022-08-20T23:45:24.255Z,5.25
2022-08-20T23:47:51.330Z,5.50
2022-08-20T23:50:22.340Z,4.90
2022-08-20T23:55:19.551Z,5.68
2022-08-20T23:57:46.464Z,5.38
